Strona główna
METAR-TAF:

METAR-TAF

Lotnisko :

Port lotniczy Wagadugu

Wagadugu, Burkina Faso

Szerokość geograficzna: 12-21N, Długość geograficzna: 001-31W, wysokość: 316 m

Aktualna obserwacja pogody

Raport powstał 1 godzina i 7 minut temu, godzina 18:00 UTC
Wiatr 3 kt od północ, zmienny między północno-północny zachód i północny wschód
Temperatura 30°C
Wilgotność 21%
Ciśnienie 1010 hPa
Widzialność: 3500 m
pył

METAR: DFFD 201800Z 01003KT 340V040 3500 DU NSC 30/05 Q1010 NOSIG

czas: 19:07 (19:07 UTC)

Prognoza

Raport powstał 2 godziny i 7 minut temu, godzina 17:00 UTC
Prognoza ważna od 20 godzina 18 UTC do 21 godzina 24 UTC
Wiatr 8 kt od wschód
Widzialność: 4000 m
pył
Przejściowo
od 20 godzina 18 UTC do 20 godzina 21 UTC
Widzialność: 2500 m
pył
Przejściowo
od 21 godzina 06 UTC do 21 godzina 10 UTC
Widzialność: 2000 m
pył

TAF: DFFD 201700Z 2018/2124 08008KT 4000 DU NSC TEMPO 2018/2021 2500 DU TEMPO 2106/2110 2000 DU

Obserwacja i prognoza pogody dla ponad 4000 lotnisk (raport METAR i TAF).

Dostępne stacje oznaczono żółtymi i czerwonymi punktami na mapie.

Najedź kursorem aby zobaczyć nazwę stacji.

Kliknij aby zobaczyć obserwacje i prognozy pogody.

Aby zmienić mapę: kliknij na zielony przycisk z czarnym krzyżykiem, aby powiększyć; na zielony przycisk z myślnikiem, aby pomniejszyć; na zielone strzałki, aby przejść do map sąsiednich.


METAR-TAF: